createdAt,value
2018-05-31T00:01:24.732Z,67.90
2018-05-31T00:03:52.183Z,67.90
2018-05-31T00:06:21.448Z,67.90
2018-05-31T00:08:48.923Z,67.50
2018-05-31T00:11:16.376Z,67.10
2018-05-31T00:13:43.832Z,67.20
2018-05-31T00:16:11.279Z,67.30
2018-05-31T00:18:38.812Z,66.80
2018-05-31T00:21:07.031Z,66.70
2018-05-31T00:23:34.468Z,66.70
2018-05-31T00:26:01.932Z,66.40
2018-05-31T00:28:29.384Z,66.60
2018-05-31T00:30:56.820Z,66.60
2018-05-31T00:33:24.286Z,67.10
2018-05-31T00:35:51.739Z,67.20
2018-05-31T00:38:19.957Z,67.60
2018-05-31T00:40:47.395Z,67.60
2018-05-31T00:43:15.611Z,68.50
2018-05-31T00:45:43.073Z,68.40
2018-05-31T00:48:10.544Z,68.70
2018-05-31T00:50:38.770Z,68.70
2018-05-31T00:53:06.229Z,68.60
2018-05-31T00:55:45.538Z,68.70
2018-05-31T00:58:12.993Z,67.80
2018-05-31T01:00:40.452Z,68.90
2018-05-31T01:03:07.900Z,68.80
2018-05-31T01:05:40.937Z,68.40
2018-05-31T01:08:08.374Z,68.30
2018-05-31T01:10:35.876Z,68.20
2018-05-31T01:13:04.166Z,68.40
2018-05-31T01:15:31.728Z,68.20
2018-05-31T01:17:59.283Z,67.80
2018-05-31T01:20:26.817Z,68.80
2018-05-31T01:22:55.116Z,69.20
2018-05-31T01:25:22.644Z,69.00
2018-05-31T01:27:50.155Z,68.30
2018-05-31T01:30:17.658Z,68.90
2018-05-31T01:32:45.166Z,69.40
2018-05-31T01:35:12.710Z,69.70
2018-05-31T01:37:40.231Z,70.00
2018-05-31T01:40:07.743Z,70.40
2018-05-31T01:42:35.248Z,70.00
2018-05-31T01:45:02.754Z,70.50
2018-05-31T01:47:30.300Z,70.60
2018-05-31T01:49:59.456Z,71.60
2018-05-31T01:52:26.892Z,71.60
2018-05-31T01:54:54.346Z,71.70
2018-05-31T01:57:21.799Z,72.20
2018-05-31T01:59:49.259Z,72.00
2018-05-31T02:02:17.165Z,71.80
2018-05-31T02:04:44.647Z,71.10
2018-05-31T02:07:12.871Z,71.50
2018-05-31T02:09:40.326Z,71.40
2018-05-31T02:12:07.777Z,71.60
2018-05-31T02:14:35.216Z,70.90
2018-05-31T02:17:02.675Z,71.40
2018-05-31T02:19:30.152Z,71.10
2018-05-31T02:21:57.595Z,71.80
2018-05-31T02:24:25.051Z,72.00
2018-05-31T02:26:52.529Z,71.80
2018-05-31T02:29:19.995Z,71.40
2018-05-31T02:31:47.437Z,71.20
2018-05-31T02:34:14.890Z,71.00
2018-05-31T02:36:42.330Z,71.00
2018-05-31T02:39:09.802Z,71.40
2018-05-31T02:41:37.263Z,72.20
2018-05-31T02:44:04.700Z,73.30
2018-05-31T02:46:32.164Z,73.50
2018-05-31T02:48:59.615Z,72.80
2018-05-31T02:51:27.070Z,73.40
2018-05-31T02:53:54.513Z,73.30
2018-05-31T02:56:21.968Z,73.60
2018-05-31T02:58:49.432Z,73.40
2018-05-31T03:01:16.882Z,73.20
2018-05-31T03:03:44.328Z,72.50
2018-05-31T03:06:11.776Z,72.20
2018-05-31T03:08:39.986Z,72.40
2018-05-31T03:11:07.429Z,72.30
2018-05-31T03:13:35.644Z,73.00
2018-05-31T03:16:03.086Z,72.00
2018-05-31T03:18:30.555Z,71.90
2018-05-31T03:20:58.009Z,71.10
2018-05-31T03:23:25.475Z,71.90
2018-05-31T03:25:52.930Z,72.00
2018-05-31T03:28:20.389Z,71.90
2018-05-31T03:30:47.850Z,72.40
2018-05-31T03:33:15.299Z,72.90
2018-05-31T03:35:42.756Z,73.00
2018-05-31T03:38:10.212Z,73.10
2018-05-31T03:40:37.666Z,73.40
2018-05-31T03:43:05.889Z,73.80
2018-05-31T03:45:33.363Z,73.90
2018-05-31T03:48:00.814Z,74.50
2018-05-31T03:50:28.272Z,74.40
2018-05-31T03:52:55.747Z,73.60
2018-05-31T03:55:23.213Z,73.00
2018-05-31T03:57:50.668Z,72.50
2018-05-31T04:00:18.121Z,73.20
2018-05-31T04:02:45.589Z,74.90
2018-05-31T04:05:13.088Z,75.30
2018-05-31T04:07:41.309Z,74.90
2018-05-31T04:10:09.585Z,73.60
2018-05-31T04:12:37.028Z,74.30
2018-05-31T04:15:04.507Z,73.60
2018-05-31T04:17:31.952Z,73.80
2018-05-31T04:19:59.426Z,75.20
2018-05-31T04:22:26.880Z,74.60
2018-05-31T04:24:54.329Z,74.00
2018-05-31T04:27:21.774Z,74.60
2018-05-31T04:29:49.223Z,75.20
2018-05-31T04:32:16.666Z,75.90
2018-05-31T04:34:44.110Z,76.70
2018-05-31T04:37:12.326Z,76.10
2018-05-31T04:39:39.784Z,76.00
2018-05-31T04:42:07.247Z,77.50
2018-05-31T04:44:34.703Z,77.70
2018-05-31T04:47:02.144Z,77.40
2018-05-31T04:49:29.600Z,77.20
2018-05-31T04:51:57.044Z,77.00
2018-05-31T04:54:24.503Z,76.40
2018-05-31T04:56:52.724Z,75.90
2018-05-31T04:59:20.168Z,75.90
2018-05-31T05:01:47.616Z,75.90
2018-05-31T05:04:15.062Z,75.90
2018-05-31T05:06:42.575Z,76.20
2018-05-31T05:09:10.792Z,76.00
2018-05-31T05:11:38.243Z,75.80
2018-05-31T05:14:05.708Z,75.70
2018-05-31T05:16:33.161Z,75.40
2018-05-31T05:19:01.384Z,76.10
2018-05-31T05:21:29.612Z,76.00
2018-05-31T05:23:57.066Z,75.20
2018-05-31T05:26:24.530Z,76.40
2018-05-31T05:28:51.972Z,74.50
2018-05-31T05:31:19.443Z,72.60
2018-05-31T05:33:46.892Z,71.70
2018-05-31T05:36:14.362Z,71.10
2018-05-31T05:38:41.822Z,70.00
2018-05-31T05:41:09.275Z,68.50
2018-05-31T05:43:36.769Z,68.50
2018-05-31T05:46:04.178Z,68.80
2018-05-31T05:48:31.632Z,67.80
2018-05-31T05:50:59.093Z,66.90
2018-05-31T05:53:26.535Z,66.30
2018-05-31T05:55:54.018Z,63.40
2018-05-31T05:58:21.457Z,61.60
2018-05-31T06:00:48.911Z,59.00
2018-05-31T06:03:16.371Z,57.60
2018-05-31T06:05:43.832Z,57.50
2018-05-31T06:08:11.274Z,57.60
2018-05-31T06:10:38.769Z,58.20
2018-05-31T06:13:06.224Z,57.90
2018-05-31T06:15:33.678Z,57.50
2018-05-31T06:18:01.103Z,56.30
2018-05-31T06:20:28.554Z,55.60
2018-05-31T06:22:56.006Z,54.60
2018-05-31T06:25:23.455Z,54.70
2018-05-31T06:27:50.910Z,54.90
2018-05-31T06:30:18.376Z,54.80
2018-05-31T06:32:45.836Z,55.10
2018-05-31T06:35:13.315Z,54.20
2018-05-31T06:37:40.768Z,54.70
2018-05-31T06:40:08.233Z,54.50
2018-05-31T06:42:35.703Z,53.20
2018-05-31T06:45:03.152Z,54.90
2018-05-31T06:47:30.597Z,54.10
2018-05-31T06:49:58.040Z,53.70
2018-05-31T06:52:25.492Z,50.40
2018-05-31T06:54:52.927Z,50.60
2018-05-31T06:57:20.395Z,51.30
2018-05-31T06:59:48.316Z,51.00
2018-05-31T07:02:15.813Z,51.20
2018-05-31T07:04:43.267Z,51.40
2018-05-31T07:07:11.475Z,50.90
2018-05-31T07:09:38.927Z,50.80
2018-05-31T07:12:06.385Z,52.20
2018-05-31T07:14:33.835Z,53.10
2018-05-31T07:17:01.288Z,53.30
2018-05-31T07:19:28.844Z,51.80
2018-05-31T07:21:56.317Z,51.40
2018-05-31T07:24:23.759Z,53.90
2018-05-31T07:26:51.416Z,51.20
2018-05-31T07:29:18.859Z,50.10
2018-05-31T07:31:46.332Z,50.00
2018-05-31T07:34:13.781Z,51.30
2018-05-31T07:36:41.239Z,51.00
2018-05-31T07:39:08.691Z,50.50
2018-05-31T07:41:36.138Z,49.40
2018-05-31T07:44:03.599Z,48.70
2018-05-31T07:46:31.064Z,49.10
2018-05-31T07:48:59.069Z,48.20
2018-05-31T07:51:26.511Z,48.50
2018-05-31T07:53:53.959Z,48.10
2018-05-31T07:56:21.411Z,48.60
2018-05-31T07:58:48.867Z,48.10
2018-05-31T08:01:16.346Z,47.30
2018-05-31T08:03:43.797Z,47.10
2018-05-31T08:06:11.244Z,48.20
2018-05-31T08:08:38.682Z,48.00
2018-05-31T08:11:06.127Z,48.00
2018-05-31T08:13:34.332Z,47.00
2018-05-31T08:16:01.778Z,47.00
2018-05-31T08:18:29.243Z,46.90
2018-05-31T08:20:57.465Z,47.00
2018-05-31T08:23:24.917Z,46.10
2018-05-31T08:25:52.366Z,47.50
2018-05-31T08:28:19.829Z,47.20
2018-05-31T08:30:47.275Z,46.50
2018-05-31T08:33:14.758Z,45.60
2018-05-31T08:35:42.209Z,45.60
2018-05-31T08:38:09.664Z,45.00
2018-05-31T08:40:37.100Z,43.10
2018-05-31T08:43:04.560Z,45.00
2018-05-31T08:45:32.016Z,45.80
2018-05-31T08:47:59.469Z,45.30
2018-05-31T08:50:26.923Z,43.30
2018-05-31T08:52:54.379Z,43.20
2018-05-31T08:55:21.830Z,43.50
2018-05-31T08:57:49.277Z,45.00
2018-05-31T09:00:16.733Z,43.70
2018-05-31T09:02:44.188Z,43.60
2018-05-31T09:05:11.627Z,44.10
2018-05-31T09:07:39.073Z,42.50
2018-05-31T09:10:06.535Z,42.90
2018-05-31T09:12:33.981Z,42.90
2018-05-31T09:15:01.429Z,42.70
2018-05-31T09:17:29.647Z,42.10
2018-05-31T09:19:57.097Z,42.10
2018-05-31T09:22:24.560Z,40.80
2018-05-31T09:24:52.011Z,42.20
2018-05-31T09:27:19.463Z,40.60
2018-05-31T09:29:46.916Z,41.20
2018-05-31T09:32:14.446Z,40.40
2018-05-31T09:34:42.660Z,40.90
2018-05-31T09:37:10.189Z,40.80
2018-05-31T09:39:37.631Z,41.40
2018-05-31T09:42:05.868Z,43.10
2018-05-31T09:44:33.327Z,43.10
2018-05-31T09:47:00.779Z,42.60
2018-05-31T09:49:28.244Z,41.70
2018-05-31T09:51:55.695Z,41.30
2018-05-31T09:54:23.149Z,43.00
2018-05-31T09:56:50.603Z,39.30
2018-05-31T09:59:19.028Z,40.20
2018-05-31T10:01:46.427Z,39.70
2018-05-31T10:04:13.879Z,39.30
2018-05-31T10:06:41.341Z,38.50
2018-05-31T10:09:08.797Z,39.60
2018-05-31T10:11:36.248Z,38.90
2018-05-31T10:14:03.703Z,39.10
2018-05-31T10:16:31.148Z,39.40
2018-05-31T10:18:58.856Z,40.30
2018-05-31T10:21:29.821Z,41.00
2018-05-31T10:23:58.028Z,39.10
2018-05-31T10:26:25.483Z,38.40
2018-05-31T10:28:52.933Z,38.40
2018-05-31T10:31:20.398Z,37.80
2018-05-31T10:33:47.847Z,38.10
2018-05-31T10:36:15.301Z,38.20
2018-05-31T10:38:46.372Z,39.30
2018-05-31T10:41:13.816Z,39.80
2018-05-31T10:43:41.280Z,39.60
2018-05-31T10:46:08.714Z,40.00
2018-05-31T10:48:36.181Z,38.80
2018-05-31T10:51:03.628Z,40.60
2018-05-31T10:53:31.095Z,39.90
2018-05-31T10:55:58.531Z,42.00
2018-05-31T10:58:25.981Z,40.90
2018-05-31T11:00:53.418Z,39.60
2018-05-31T11:03:21.634Z,41.40
2018-05-31T11:05:49.082Z,41.40
2018-05-31T11:08:16.517Z,41.50
2018-05-31T11:10:43.992Z,41.70
2018-05-31T11:13:11.438Z,40.10
2018-05-31T11:15:38.887Z,40.50
2018-05-31T11:18:07.096Z,39.20
2018-05-31T11:20:34.553Z,39.20
2018-05-31T11:23:02.002Z,37.80
2018-05-31T11:25:30.233Z,37.30
2018-05-31T11:27:58.471Z,38.50
2018-05-31T11:30:25.935Z,38.40
2018-05-31T11:32:53.387Z,36.50
2018-05-31T11:35:20.837Z,34.10
2018-05-31T11:37:48.296Z,34.10
2018-05-31T11:40:16.672Z,33.80
2018-05-31T11:42:44.350Z,32.80
2018-05-31T11:45:11.798Z,33.60
2018-05-31T11:47:39.259Z,33.00
2018-05-31T11:50:06.706Z,34.10
2018-05-31T11:52:34.152Z,34.30
2018-05-31T11:55:01.605Z,33.70
2018-05-31T11:57:29.051Z,33.20
2018-05-31T11:59:56.506Z,33.20
2018-05-31T12:02:23.942Z,34.30
2018-05-31T12:04:51.388Z,34.30
2018-05-31T12:07:19.604Z,33.20
2018-05-31T12:09:47.055Z,33.20
2018-05-31T12:12:14.491Z,34.70
2018-05-31T12:14:41.928Z,35.10
2018-05-31T12:17:10.132Z,34.70
2018-05-31T12:19:37.594Z,34.60
2018-05-31T12:22:05.802Z,34.00
2018-05-31T12:24:33.245Z,33.50
2018-05-31T12:27:00.708Z,34.70
2018-05-31T12:29:28.142Z,35.00
2018-05-31T12:31:55.595Z,36.10
2018-05-31T12:34:23.048Z,36.90
2018-05-31T12:36:50.493Z,34.90
2018-05-31T12:39:17.956Z,34.30
2018-05-31T12:41:45.390Z,32.90
2018-05-31T12:44:13.609Z,31.90
2018-05-31T12:46:41.042Z,31.80
2018-05-31T12:49:08.510Z,35.30
2018-05-31T12:51:35.965Z,36.30
2018-05-31T12:54:03.432Z,37.30
2018-05-31T12:56:30.895Z,35.60
2018-05-31T12:58:58.341Z,33.60
2018-05-31T13:01:25.778Z,34.20
2018-05-31T13:03:53.246Z,36.70
2018-05-31T13:06:20.691Z,36.70
2018-05-31T13:08:48.147Z,38.60
2018-05-31T13:11:15.648Z,37.80
2018-05-31T13:13:43.090Z,38.00
2018-05-31T13:16:10.531Z,38.60
2018-05-31T13:18:37.988Z,39.30
2018-05-31T13:21:05.446Z,38.60
2018-05-31T13:23:32.892Z,38.50
2018-05-31T13:26:00.340Z,38.90
2018-05-31T13:28:28.551Z,39.40
2018-05-31T13:30:55.991Z,39.40
2018-05-31T13:33:23.476Z,39.10
2018-05-31T13:35:50.899Z,39.60
2018-05-31T13:38:18.359Z,40.50
2018-05-31T13:40:45.807Z,40.30
2018-05-31T13:43:13.291Z,38.80
2018-05-31T13:45:40.700Z,38.30
2018-05-31T13:48:08.151Z,38.80
2018-05-31T13:50:36.364Z,38.90
2018-05-31T13:53:03.821Z,38.80
2018-05-31T13:55:31.275Z,39.00
2018-05-31T13:57:58.740Z,38.80
2018-05-31T14:00:26.183Z,40.60
2018-05-31T14:02:53.676Z,40.90
2018-05-31T14:05:21.115Z,41.10
2018-05-31T14:07:48.559Z,41.70
2018-05-31T14:10:16.032Z,41.60
2018-05-31T14:12:43.479Z,42.10
2018-05-31T14:15:10.936Z,42.20
2018-05-31T14:17:38.379Z,41.60
2018-05-31T14:20:05.838Z,40.70
2018-05-31T14:22:33.288Z,41.70
2018-05-31T14:25:00.748Z,41.30
2018-05-31T14:27:28.256Z,41.20
2018-05-31T14:29:55.700Z,41.50
2018-05-31T14:32:23.149Z,41.50
2018-05-31T14:34:50.670Z,42.10
2018-05-31T14:37:18.112Z,42.80
2018-05-31T14:39:45.561Z,42.00
2018-05-31T14:42:13.019Z,41.30
2018-05-31T14:44:41.225Z,41.10
2018-05-31T14:47:08.670Z,41.10
2018-05-31T14:49:36.111Z,39.80
2018-05-31T14:52:03.579Z,40.40
2018-05-31T14:54:31.039Z,40.90
2018-05-31T14:56:58.533Z,42.00
2018-05-31T14:59:25.995Z,42.50
2018-05-31T15:01:53.451Z,41.70
2018-05-31T15:04:20.904Z,42.40
2018-05-31T15:06:48.359Z,42.20
2018-05-31T15:09:15.806Z,41.70
2018-05-31T15:11:43.272Z,42.40
2018-05-31T15:14:10.715Z,43.50
2018-05-31T15:16:38.159Z,44.50
2018-05-31T15:19:05.626Z,45.60
2018-05-31T15:21:33.082Z,46.90
2018-05-31T15:24:00.515Z,48.10
2018-05-31T15:26:27.961Z,48.30
2018-05-31T15:28:55.415Z,52.10
2018-05-31T15:31:22.862Z,48.00
2018-05-31T15:33:51.077Z,48.70
2018-05-31T15:36:18.535Z,48.70
2018-05-31T15:38:45.978Z,48.70
2018-05-31T15:41:13.433Z,48.40
2018-05-31T15:43:40.869Z,48.60
2018-05-31T15:46:08.322Z,48.70
2018-05-31T15:48:35.780Z,48.60
2018-05-31T15:51:03.227Z,48.90
2018-05-31T15:53:31.456Z,50.30
2018-05-31T15:55:58.887Z,50.30
2018-05-31T15:58:26.349Z,51.10
2018-05-31T16:00:53.796Z,52.30
2018-05-31T16:03:21.271Z,50.70
2018-05-31T16:05:48.691Z,50.60
2018-05-31T16:08:16.152Z,51.30
2018-05-31T16:10:43.605Z,51.40
2018-05-31T16:13:11.055Z,51.80
2018-05-31T16:15:39.265Z,52.60
2018-05-31T16:18:07.472Z,52.90
2018-05-31T16:20:35.690Z,52.90
2018-05-31T16:23:03.152Z,53.40
2018-05-31T16:25:30.599Z,54.20
2018-05-31T16:27:58.042Z,55.20
2018-05-31T16:30:26.261Z,56.70
2018-05-31T16:32:53.718Z,56.70
2018-05-31T16:35:21.177Z,57.40
2018-05-31T16:37:48.620Z,58.40
2018-05-31T16:40:16.840Z,58.80
2018-05-31T16:42:44.296Z,58.70
2018-05-31T16:45:11.741Z,58.10
2018-05-31T16:47:39.181Z,58.30
2018-05-31T16:50:06.659Z,58.20
2018-05-31T16:52:34.109Z,59.00
2018-05-31T16:55:07.431Z,59.60
2018-05-31T16:57:35.664Z,61.10
2018-05-31T17:00:03.124Z,61.00
2018-05-31T17:02:30.576Z,60.20
2018-05-31T17:04:58.044Z,61.90
2018-05-31T17:07:25.489Z,64.10
2018-05-31T17:09:52.947Z,67.30
2018-05-31T17:12:20.395Z,66.10
2018-05-31T17:14:47.835Z,65.20
2018-05-31T17:17:15.278Z,64.60
2018-05-31T17:19:42.739Z,65.70
2018-05-31T17:22:10.207Z,67.60
2018-05-31T17:24:37.659Z,69.40
2018-05-31T17:27:05.089Z,70.70
2018-05-31T17:29:32.547Z,71.30
2018-05-31T17:32:00.021Z,70.80
2018-05-31T17:34:27.859Z,72.20
2018-05-31T17:36:56.076Z,71.60
2018-05-31T17:39:23.519Z,71.50
2018-05-31T17:41:50.964Z,73.40
2018-05-31T17:44:18.406Z,74.80
2018-05-31T17:46:46.624Z,74.70
2018-05-31T17:49:14.071Z,74.60
2018-05-31T17:51:41.535Z,73.00
2018-05-31T17:54:08.974Z,72.20
2018-05-31T17:56:36.415Z,73.70
2018-05-31T17:59:03.860Z,77.00
2018-05-31T18:01:32.072Z,76.00
2018-05-31T18:03:59.536Z,75.90
2018-05-31T18:06:26.991Z,76.80
2018-05-31T18:08:54.443Z,77.60
2018-05-31T18:11:21.874Z,78.70
2018-05-31T18:13:49.360Z,75.90
2018-05-31T18:16:16.822Z,77.10
2018-05-31T18:18:44.270Z,77.80
2018-05-31T18:21:11.726Z,76.90
2018-05-31T18:23:39.184Z,76.10
2018-05-31T18:26:06.662Z,76.20
2018-05-31T18:28:34.109Z,76.50
2018-05-31T18:31:01.561Z,76.40
2018-05-31T18:33:29.029Z,77.00
2018-05-31T18:35:56.483Z,77.60
2018-05-31T18:38:24.043Z,76.20
2018-05-31T18:40:51.492Z,75.70
2018-05-31T18:43:18.938Z,74.90
2018-05-31T18:45:46.392Z,76.50
2018-05-31T18:48:13.844Z,77.80
2018-05-31T18:50:42.057Z,80.20
2018-05-31T18:53:09.506Z,80.20
2018-05-31T18:55:36.961Z,81.40
2018-05-31T18:58:04.417Z,81.00
2018-05-31T19:00:31.864Z,79.60
2018-05-31T19:02:59.333Z,80.20
2018-05-31T19:05:26.814Z,80.10
2018-05-31T19:07:55.061Z,77.00
2018-05-31T19:10:22.537Z,76.90
2018-05-31T19:12:55.670Z,74.30
2018-05-31T19:15:23.883Z,76.00
2018-05-31T19:17:51.346Z,76.00
2018-05-31T19:20:18.802Z,77.20
2018-05-31T19:22:46.245Z,78.60
2018-05-31T19:25:19.693Z,79.30
2018-05-31T19:27:47.159Z,80.90
2018-05-31T19:30:20.407Z,76.40
2018-05-31T19:32:47.886Z,73.80
2018-05-31T19:35:20.973Z,75.40
2018-05-31T19:37:49.206Z,78.00
2018-05-31T19:40:16.650Z,77.90
2018-05-31T19:42:49.769Z,79.20
2018-05-31T19:45:17.228Z,78.40
2018-05-31T19:47:44.687Z,78.40
2018-05-31T19:50:12.127Z,77.40
2018-05-31T19:52:45.333Z,78.10
2018-05-31T19:55:12.831Z,78.50
2018-05-31T19:57:46.817Z,78.70
2018-05-31T20:00:19.957Z,78.70
2018-05-31T20:02:53.002Z,79.10
2018-05-31T20:05:21.214Z,78.60
2018-05-31T20:07:48.663Z,78.60
2018-05-31T20:10:16.102Z,77.80
2018-05-31T20:12:43.739Z,77.80
2018-05-31T20:15:11.194Z,77.80
2018-05-31T20:17:38.647Z,77.10
2018-05-31T20:20:06.115Z,77.00
2018-05-31T20:22:33.563Z,77.00
2018-05-31T20:25:01.825Z,78.10
2018-05-31T20:27:29.266Z,77.40
2018-05-31T20:29:56.707Z,78.00
2018-05-31T20:32:24.197Z,79.10
2018-05-31T20:34:51.841Z,79.30
2018-05-31T20:37:19.282Z,80.00
2018-05-31T20:39:46.730Z,80.20
2018-05-31T20:42:14.175Z,80.10
2018-05-31T20:44:41.623Z,80.30
2018-05-31T20:47:09.083Z,80.30
2018-05-31T20:49:36.546Z,79.90
2018-05-31T20:52:03.984Z,80.20
2018-05-31T20:54:32.214Z,80.30
2018-05-31T20:56:59.675Z,80.30
2018-05-31T20:59:27.150Z,80.40
2018-05-31T21:01:54.608Z,80.00
2018-05-31T21:04:22.084Z,80.80
2018-05-31T21:06:50.306Z,80.20
2018-05-31T21:09:17.779Z,80.20
2018-05-31T21:11:45.238Z,79.40
2018-05-31T21:14:12.689Z,78.60
2018-05-31T21:16:40.135Z,79.00
2018-05-31T21:19:08.359Z,79.20
2018-05-31T21:21:36.593Z,79.00
2018-05-31T21:24:04.038Z,78.90
2018-05-31T21:26:31.481Z,78.40
2018-05-31T21:28:58.944Z,78.80
2018-05-31T21:31:27.175Z,79.40
2018-05-31T21:33:55.390Z,78.50
2018-05-31T21:36:22.864Z,77.00
2018-05-31T21:38:50.277Z,77.80
2018-05-31T21:41:17.737Z,79.10
2018-05-31T21:43:45.186Z,79.00
2018-05-31T21:46:13.455Z,79.40
2018-05-31T21:48:41.658Z,79.60
2018-05-31T21:51:09.115Z,79.60
2018-05-31T21:53:36.560Z,79.70
2018-05-31T21:56:04.021Z,79.30
2018-05-31T21:58:31.464Z,78.10
2018-05-31T22:00:58.926Z,79.40
2018-05-31T22:03:26.376Z,80.20
2018-05-31T22:05:53.837Z,80.20
2018-05-31T22:08:21.322Z,79.10
2018-05-31T22:10:48.785Z,79.40
2018-05-31T22:13:16.244Z,78.90
2018-05-31T22:15:43.692Z,79.20
2018-05-31T22:18:11.147Z,78.00
2018-05-31T22:20:38.591Z,78.40
2018-05-31T22:23:06.038Z,78.60
2018-05-31T22:25:33.481Z,78.50
2018-05-31T22:28:00.938Z,79.30
2018-05-31T22:30:28.422Z,79.20
2018-05-31T22:32:55.862Z,78.50
2018-05-31T22:35:23.312Z,78.70
2018-05-31T22:37:50.759Z,78.40
2018-05-31T22:40:18.977Z,79.10
2018-05-31T22:42:46.421Z,79.10
2018-05-31T22:45:13.876Z,79.10
2018-05-31T22:47:41.320Z,78.80
2018-05-31T22:50:08.785Z,78.80
2018-05-31T22:52:36.258Z,78.90
2018-05-31T22:55:04.468Z,77.60
2018-05-31T22:57:31.928Z,77.50
2018-05-31T22:59:59.431Z,77.40
2018-05-31T23:02:26.892Z,77.70
2018-05-31T23:04:54.357Z,78.90
2018-05-31T23:07:21.812Z,79.50
2018-05-31T23:09:49.269Z,80.30
2018-05-31T23:12:16.723Z,80.50
2018-05-31T23:14:45.481Z,81.20
2018-05-31T23:17:12.926Z,81.10
2018-05-31T23:19:41.151Z,81.50
2018-05-31T23:22:09.373Z,81.60
2018-05-31T23:24:37.600Z,82.10
2018-05-31T23:27:05.042Z,82.10
2018-05-31T23:29:32.486Z,82.20
2018-05-31T23:31:59.928Z,82.70
2018-05-31T23:34:27.373Z,82.30
2018-05-31T23:36:55.583Z,82.60
2018-05-31T23:39:23.072Z,82.40
2018-05-31T23:41:50.539Z,81.90
2018-05-31T23:44:17.984Z,82.20
2018-05-31T23:46:45.438Z,82.30
2018-05-31T23:49:12.890Z,82.00
2018-05-31T23:51:40.939Z,81.30
2018-05-31T23:54:08.387Z,81.40
2018-05-31T23:56:35.846Z,81.10
2018-05-31T23:59:03.325Z,80.80
